Latest Weather Observations for Adele Island

IDW60801

Issued at 11:35 pm WST Thursday 30 October 2014 (issued every 30 minutes, with the page automatically refreshed every 10 minutes)

About weather observations | Map of weather stations | Latest weather observations for WA | Other Formats
Station Details ID: 200735 Name: ADELE ISLAND Lat: -15.51 Lon: 123.16 Height: 4.6 m
Data from the previous 72 hours. | See also: Recent months for locations in Western Australia
Date/Time
WST
Temp
°C
App
Temp
°C
Dew
Point
Rel
Hum
%
Delta-T
°C
Wind Press
QNH
hPa
Press
MSL
hPa
Rain
since 9 am
mm
Dir
 
Spd
km/h
Gust
km/h
Spd
kts
Gust
kts
30/11:30pm 27.5 - - - - WNW 22 28 12 15 1008.7 1008.6 -
30/11:00pm 27.5 - - - - WNW 20 28 11 15 1008.9 1008.8 -
30/10:30pm 27.6 - - - - WNW 22 28 12 15 1009.2 1009.1 -
30/10:00pm 27.7 - - - - WNW 20 26 11 14 1009.4 1009.3 -
30/09:30pm 27.7 - - - - WNW 20 26 11 14 1009.6 1009.5 -
30/09:00pm 27.7 - - - - WNW 22 30 12 16 1009.3 1009.2 -
30/08:30pm 27.7 - - - - W 24 30 13 16 1009.2 1009.1 -
30/08:00pm 27.8 - - - - W 22 28 12 15 1008.9 1008.8 -
30/07:30pm 27.9 - - - - W 24 30 13 16 1008.5 1008.4 -
30/07:00pm 27.9 - - - - W 26 32 14 17 1008.1 1008.0 -
30/06:30pm 28.1 - - - - W 24 28 13 15 1007.9 1007.8 -
30/06:00pm 28.0 - - - - W 24 30 13 16 1007.7 1007.6 -
30/05:30pm 28.1 - - - - WNW 26 32 14 17 1007.4 1007.3 -
30/05:00pm 28.5 - - - - WNW 24 30 13 16 1007.3 1007.2 -
30/04:30pm 28.6 - - - - WNW 24 32 13 17 1007.1 1007.0 -
30/04:00pm 28.9 - - - - NW 24 30 13 16 1007.3 1007.2 -
30/03:30pm 28.8 - - - - WNW 24 30 13 16 1007.4 1007.3 -
30/03:00pm 28.9 - - - - WNW 24 30 13 16 1007.5 1007.4 -
30/02:30pm 29.1 - - - - WNW 24 28 13 15 1007.9 1007.8 -
30/02:00pm 29.4 - - - - WNW 22 28 12 15 1008.2 1008.1 -
30/01:30pm 28.9 - - - - WNW 20 24 11 13 1008.4 1008.3 -
30/01:00pm 29.3 - - - - WNW 20 22 11 12 1008.7 1008.6 -
30/12:30pm 28.6 - - - - W 17 20 9 11 1009.2 1009.1 -
30/12:00pm 29.0 - - - - WSW 17 20 9 11 1009.6 1009.5 -
30/11:30am 28.9 - - - - WSW 17 20 9 11 1009.9 1009.8 -
30/11:00am 29.0 - - - - WSW 15 20 8 11 1010.3 1010.2 -
30/10:30am 29.0 - - - - WSW 13 17 7 9 1010.6 1010.5 -
30/10:00am 29.4 - - - - SSW 15 19 8 10 1010.8 1010.7 -
30/09:30am 29.2 - - - - SSW 13 19 7 10 1011.1 1011.0 -
30/09:00am 29.0 - - - - SW 9 13 5 7 1011.2 1011.1 -
30/08:30am 28.9 - - - - WSW 9 11 5 6 1011.4 1011.3 -
30/08:00am 28.1 - - - - SW 9 11 5 6 1011.3 1011.2 -
30/07:30am 27.7 - - - - S 6 9 3 5 1011.2 1011.1 -
30/07:00am 27.5 - - - - SSW 11 15 6 8 1010.9 1010.8 -
30/06:30am 27.2 - - - - S 15 19 8 10 1010.5 1010.4 -
30/06:00am 26.8 - - - - S 15 17 8 9 1010.1 1010.0 -
30/05:30am 26.5 - - - - S 13 15 7 8 1009.8 1009.7 -
30/05:00am 26.5 - - - - S 13 17 7 9 1009.4 1009.3 -
30/04:30am 26.6 - - - - S 15 17 8 9 1009.2 1009.1 -
30/04:00am 26.7 - - - - S 15 17 8 9 1009.2 1009.1 -
30/03:30am 26.8 - - - - S 13 17 7 9 1009.0 1008.9 -
30/03:00am 26.9 - - - - SSW 13 17 7 9 1008.9 1008.8 -
30/02:30am 27.0 - - - - SSW 13 17 7 9 1009.0 1008.9 -
30/02:00am 27.0 - - - - SSW 15 19 8 10 1009.0 1008.9 -
30/01:30am 27.2 - - - - SW 15 19 8 10 1009.3 1009.2 -
30/01:00am 27.1 - - - - WSW 11 13 6 7 1009.6 1009.5 -
30/12:30am 27.3 - - - - W 11 15 6 8 1009.7 1009.6 -
30/12:00am 27.1 - - - - W 15 19 8 10 1009.7 1009.6 -
 
Date/Time
WST
Temp
°C
App
Temp
°C
Dew
Point
Rel
Hum
%
Delta-T
°C
Wind Press
QNH
hPa
Press
MSL
hPa
Rain
since 9 am
mm
Dir
 
Spd
km/h
Gust
km/h
Spd
kts
Gust
kts
29/11:30pm 27.1 - - - - W 17 19 9 10 1009.9 1009.8 -
29/11:00pm 27.0 - - - - W 17 20 9 11 1010.4 1010.3 -
29/10:30pm 27.1 - - - - WSW 19 24 10 13 1010.7 1010.6 -
29/10:00pm 27.1 - - - - SW 20 26 11 14 1010.9 1010.8 -
29/09:30pm 27.1 - - - - SW 20 24 11 13 1010.9 1010.8 -
29/09:00pm 27.3 - - - - SW 22 28 12 15 1011.0 1010.9 -
29/08:30pm 27.3 - - - - SW 24 30 13 16 1010.9 1010.8 -
29/08:00pm 27.3 - - - - WSW 24 32 13 17 1010.9 1010.8 -
29/07:30pm 27.4 - - - - WSW 26 35 14 19 1011.0 1010.9 -
29/07:00pm 27.5 - - - - WSW 26 32 14 17 1010.9 1010.8 -
29/06:30pm 27.4 - - - - WSW 26 32 14 17 1010.8 1010.7 -
29/06:00pm 27.7 - - - - W 22 28 12 15 1010.6 1010.5 -
29/05:30pm 27.8 - - - - W 24 28 13 15 1010.4 1010.3 -
29/05:00pm 28.1 - - - - W 22 26 12 14 1010.1 1010.0 -
29/04:30pm 28.3 - - - - W 22 26 12 14 1010.0 1009.9 -
29/04:00pm 28.4 - - - - W 24 28 13 15 1010.1 1010.0 -
29/03:30pm 28.9 - - - - W 22 28 12 15 1010.2 1010.1 -
29/03:00pm 28.6 - - - - W 20 26 11 14 1010.5 1010.4 -
29/02:30pm 29.2 - - - - W 17 22 9 12 1010.9 1010.8 -
29/02:00pm 29.4 - - - - W 19 22 10 12 1011.0 1010.9 -
29/01:30pm 28.8 - - - - W 17 20 9 11 1011.3 1011.2 -
29/01:00pm 28.6 - - - - W 19 22 10 12 1011.5 1011.4 -
29/12:30pm 29.5 - - - - WNW 17 20 9 11 1011.9 1011.8 -
29/12:00pm 28.6 - - - - W 15 17 8 9 1012.3 1012.2 -
29/11:30am 29.6 - - - - W 13 19 7 10 1012.6 1012.5 -
29/11:00am 29.0 - - - - W 13 17 7 9 1012.6 1012.5 -
29/10:30am 28.9 - - - - SW 13 20 7 11 1012.9 1012.8 -
29/10:00am 29.0 - - - - WSW 13 19 7 10 1013.2 1013.1 -
29/09:30am 28.0 - - - - SSW 17 22 9 12 1013.2 1013.1 -
29/09:00am 28.2 - - - - SSW 17 22 9 12 1013.1 1013.0 -
29/08:30am 27.7 - - - - SSW 15 20 8 11 1013.2 1013.1 -
29/08:00am 27.6 - - - - SSW 15 20 8 11 1013.1 1013.0 -
29/07:30am 27.7 - - - - S 11 15 6 8 1013.1 1013.0 -
29/07:00am 27.2 - - - - SSW 13 15 7 8 1012.8 1012.7 -
29/06:30am 26.9 - - - - SSW 13 15 7 8 1012.2 1012.1 -
29/06:00am 26.6 - - - - WSW 11 13 6 7 1012.0 1011.9 -
29/05:30am 26.5 - - - - W 11 11 6 6 1011.7 1011.6 -
29/05:00am 26.5 - - - - N 7 9 4 5 1011.6 1011.5 -
29/04:30am 26.6 - - - - WNW 9 11 5 6 1011.3 1011.2 -
29/04:00am 26.6 - - - - W 9 11 5 6 1010.8 1010.7 -
29/03:30am 26.4 - - - - S 13 15 7 8 1010.4 1010.3 -
29/03:00am 26.6 - - - - SSW 11 13 6 7 1010.4 1010.3 -
29/02:30am 26.8 - - - - SW 11 13 6 7 1010.4 1010.3 -
29/02:00am 26.7 - - - - SW 11 13 6 7 1010.4 1010.3 -
29/01:30am 26.7 - - - - SW 11 15 6 8 1010.4 1010.3 -
29/01:00am 26.8 - - - - SSW 13 17 7 9 1010.7 1010.6 -
29/12:30am 26.8 - - - - SW 13 17 7 9 1010.6 1010.5 -
29/12:00am 26.9 - - - - SW 15 17 8 9 1010.7 1010.6 -
 
Date/Time
WST
Temp
°C
App
Temp
°C
Dew
Point
Rel
Hum
%
Delta-T
°C
Wind Press
QNH
hPa
Press
MSL
hPa
Rain
since 9 am
mm
Dir
 
Spd
km/h
Gust
km/h
Spd
kts
Gust
kts
28/11:30pm 26.7 - - - - WSW 11 13 6 7 1011.1 1011.0 -
28/11:00pm 26.9 - - - - SW 13 17 7 9 1011.1 1011.0 -
28/10:30pm 26.8 - - - - WSW 13 17 7 9 1011.1 1011.0 -
28/10:00pm 26.8 - - - - SW 17 19 9 10 1010.9 1010.8 -
28/09:30pm 26.9 - - - - SW 19 22 10 12 1010.8 1010.7 -
28/09:00pm 27.0 - - - - SW 22 26 12 14 1010.6 1010.5 -
28/08:30pm 27.2 - - - - SW 20 26 11 14 1010.6 1010.5 -
28/08:00pm 27.3 - - - - SSW 22 28 12 15 1010.6 1010.5 -
28/07:30pm 27.2 - - - - SW 20 26 11 14 1010.6 1010.5 -
28/07:00pm 27.4 - - - - SW 22 28 12 15 1010.3 1010.2 -
28/06:30pm 27.6 - - - - WSW 22 26 12 14 1009.9 1009.8 -
28/06:00pm 27.7 - - - - WSW 22 28 12 15 1009.8 1009.7 -
28/05:30pm 27.8 - - - - WSW 20 26 11 14 1009.6 1009.5 -
28/05:00pm 28.3 - - - - WSW 20 26 11 14 1009.6 1009.5 -
28/04:30pm 28.6 - - - - W 20 26 11 14 1009.8 1009.7 -
28/04:00pm 28.7 - - - - W 19 22 10 12 1009.7 1009.6 -
28/03:30pm 29.2 - - - - W 17 20 9 11 1009.8 1009.7 -
28/03:00pm 29.0 - - - - W 17 20 9 11 1010.1 1010.0 -
28/02:30pm 29.1 - - - - W 17 20 9 11 1010.3 1010.2 -
28/02:00pm 29.8 - - - - WNW 15 20 8 11 1010.4 1010.3 -
28/01:30pm 29.3 - - - - W 15 19 8 10 1010.6 1010.5 -
28/01:00pm 29.0 - - - - WNW 17 19 9 10 1010.7 1010.6 -
28/12:30pm 29.1 - - - - NW 13 17 7 9 1011.5 1011.4 -
28/12:00pm 28.3 - - - - N 11 13 6 7 1012.1 1012.0 -
28/11:30am 28.1 - - - - N 9 11 5 6 1012.5 1012.4 -
28/11:00am 28.8 - - - - NE 11 15 6 8 1012.8 1012.7 -
28/10:30am 29.5 - - - - NE 13 17 7 9 1013.1 1013.0 -
28/10:00am 29.6 - - - - NE 13 17 7 9 1013.2 1013.1 -
28/09:30am 28.8 - - - - NE 13 17 7 9 1013.2 1013.1 -
28/09:00am 28.5 - - - - NNE 9 13 5 7 1013.1 1013.0 -
28/08:30am 28.9 - - - - NE 7 13 4 7 1013.2 1013.1 -
28/08:00am 28.7 - - - - SSW 15 19 8 10 1012.7 1012.6 -
28/07:30am 27.7 - - - - SW 15 19 8 10 1012.4 1012.3 -
28/07:00am 27.6 - - - - SW 11 13 6 7 1012.4 1012.3 -
28/06:30am 27.1 - - - - NE 4 7 2 4 1012.4 1012.3 -
28/06:00am 26.7 - - - - CALM 0 0 0 0 1012.2 1012.1 -
28/05:30am 26.8 - - - - CALM 0 0 0 0 1012.0 1011.9 -
28/05:00am 27.2 - - - - N 7 9 4 5 1011.4 1011.3 -
28/04:30am 27.1 - - - - N 9 9 5 5 1011.1 1011.0 -
28/04:00am 27.1 - - - - N 11 11 6 6 1010.5 1010.4 -
28/03:30am 27.2 - - - - NW 15 15 8 8 1010.3 1010.2 -
28/03:00am 27.4 - - - - NNW 17 19 9 10 1010.2 1010.1 -
28/02:30am 27.5 - - - - NNW 19 20 10 11 1010.0 1009.9 -
28/02:00am 27.7 - - - - NNW 20 24 11 13 1009.8 1009.7 -
28/01:30am 27.6 - - - - NNW 20 26 11 14 1010.2 1010.1 -
28/01:00am 27.7 - - - - NNW 24 28 13 15 1009.9 1009.8 -
28/12:30am 27.5 - - - - NW 22 28 12 15 1010.0 1009.9 -
28/12:00am 27.6 - - - - NW 24 28 13 15 1010.2 1010.1 -

Other Formats:

Comma delimited format used in spreadsheet applications
http://www.bom.gov.au/fwo/IDW60801/IDW60801.94210.axf

JavaScript Object Notation format (JSON) in row-major order
http://www.bom.gov.au/fwo/IDW60801/IDW60801.94210.json